createdAt,value
2018-03-01T00:01:10.940Z,98556.56
2018-03-01T00:03:38.475Z,98553.08
2018-03-01T00:06:06.058Z,98553.88
2018-03-01T00:08:33.600Z,98540.34
2018-03-01T00:11:01.172Z,98540.75
2018-03-01T00:13:28.722Z,98546.80
2018-03-01T00:15:56.293Z,98525.62
2018-03-01T00:18:23.827Z,98526.21
2018-03-01T00:20:51.364Z,98521.23
2018-03-01T00:23:18.916Z,98530.46
2018-03-01T00:25:46.439Z,98533.55
2018-03-01T00:28:14.090Z,98522.16
2018-03-01T00:30:42.399Z,98527.16
2018-03-01T00:33:09.975Z,98519.56
2018-03-01T00:35:37.532Z,98504.30
2018-03-01T00:38:05.096Z,98513.30
2018-03-01T00:40:32.637Z,98506.97
2018-03-01T00:43:00.181Z,98508.25
2018-03-01T00:45:27.778Z,98502.99
2018-03-01T00:47:55.310Z,98488.78
2018-03-01T00:50:22.867Z,98488.31
2018-03-01T00:52:50.407Z,98492.28
2018-03-01T00:55:17.969Z,98500.34
2018-03-01T00:57:45.496Z,98472.49
2018-03-01T01:00:13.060Z,98482.20
2018-03-01T01:02:40.600Z,98488.38
2018-03-01T01:05:08.122Z,98477.80
2018-03-01T01:07:35.703Z,98478.21
2018-03-01T01:10:03.267Z,98473.16
2018-03-01T01:12:30.831Z,98486.93
2018-03-01T01:14:58.363Z,98475.20
2018-03-01T01:17:25.980Z,98470.05
2018-03-01T01:19:53.521Z,98485.11
2018-03-01T01:22:21.055Z,98488.52
2018-03-01T01:24:48.657Z,98470.30
2018-03-01T01:27:16.186Z,98481.07
2018-03-01T01:29:43.749Z,98479.16
2018-03-01T01:32:11.279Z,98476.43
2018-03-01T01:34:38.867Z,98465.48
2018-03-01T01:37:06.409Z,98458.25
2018-03-01T01:39:33.979Z,98453.84
2018-03-01T01:42:01.548Z,98441.20
2018-03-01T01:44:29.089Z,98415.77
2018-03-01T01:46:56.669Z,98411.69
2018-03-01T01:49:24.191Z,98424.41
2018-03-01T01:51:51.754Z,98412.70
2018-03-01T01:54:19.369Z,98414.27
2018-03-01T01:56:46.936Z,98423.77
2018-03-01T01:59:14.457Z,98410.63
2018-03-01T02:01:42.610Z,98397.05
2018-03-01T02:04:10.168Z,98396.62
2018-03-01T02:06:37.708Z,98395.05
2018-03-01T02:09:05.274Z,98381.60
2018-03-01T02:11:32.817Z,98377.66
2018-03-01T02:14:00.386Z,98381.83
2018-03-01T02:16:27.907Z,98386.58
2018-03-01T02:18:55.488Z,98368.94
2018-03-01T02:21:23.019Z,98371.44
2018-03-01T02:23:50.598Z,98346.98
2018-03-01T02:26:18.123Z,98344.94
2018-03-01T02:28:45.679Z,98340.19
2018-03-01T02:31:13.253Z,98339.44
2018-03-01T02:33:40.786Z,98350.52
2018-03-01T02:36:08.405Z,98346.98
2018-03-01T02:38:35.950Z,98347.37
2018-03-01T02:41:03.523Z,98346.09
2018-03-01T02:43:31.095Z,98335.02
2018-03-01T02:45:58.637Z,98329.09
2018-03-01T02:48:26.215Z,98329.78
2018-03-01T02:50:53.799Z,98339.93
2018-03-01T02:53:21.376Z,98322.41
2018-03-01T02:55:48.912Z,98320.59
2018-03-01T02:58:16.528Z,98322.83
2018-03-01T03:00:44.189Z,98311.76
2018-03-01T03:03:11.712Z,98300.86
2018-03-01T03:05:39.264Z,98314.67
2018-03-01T03:08:06.804Z,98301.77
2018-03-01T03:10:34.368Z,98298.02
2018-03-01T03:13:01.920Z,98300.83
2018-03-01T03:15:29.477Z,98293.69
2018-03-01T03:17:57.005Z,98296.98
2018-03-01T03:20:24.606Z,98300.59
2018-03-01T03:22:52.173Z,98289.13
2018-03-01T03:25:19.706Z,98289.33
2018-03-01T03:27:48.063Z,98279.39
2018-03-01T03:30:15.614Z,98284.84
2018-03-01T03:32:43.177Z,98292.42
2018-03-01T03:35:10.712Z,98289.38
2018-03-01T03:37:38.282Z,98281.75
2018-03-01T03:40:05.849Z,98282.20
2018-03-01T03:42:33.427Z,98283.53
2018-03-01T03:45:00.951Z,98285.89
2018-03-01T03:47:28.472Z,98281.25
2018-03-01T03:49:56.049Z,98268.30
2018-03-01T03:52:23.607Z,98253.56
2018-03-01T03:54:51.175Z,98263.27
2018-03-01T03:57:18.717Z,98255.22
2018-03-01T03:59:46.312Z,98269.08
2018-03-01T04:02:13.841Z,98266.02
2018-03-01T04:04:41.376Z,98259.56
2018-03-01T04:07:08.932Z,98252.59
2018-03-01T04:09:36.472Z,98254.92
2018-03-01T04:12:04.025Z,98255.58
2018-03-01T04:14:31.563Z,98245.02
2018-03-01T04:16:59.127Z,98246.97
2018-03-01T04:19:26.673Z,98239.05
2018-03-01T04:21:54.250Z,98246.46
2018-03-01T04:24:21.779Z,98241.52
2018-03-01T04:26:49.308Z,98246.13
2018-03-01T04:29:16.863Z,98229.80
2018-03-01T04:31:44.384Z,98231.93
2018-03-01T04:34:11.959Z,98216.52
2018-03-01T04:36:39.476Z,98202.16
2018-03-01T04:39:07.034Z,98201.13
2018-03-01T04:41:34.556Z,98200.16
2018-03-01T04:44:02.132Z,98213.22
2018-03-01T04:46:29.658Z,98205.16
2018-03-01T04:48:57.190Z,98198.65
2018-03-01T04:51:24.751Z,98206.50
2018-03-01T04:53:52.280Z,98198.38
2018-03-01T04:56:19.845Z,98196.05
2018-03-01T04:58:47.366Z,98201.06
2018-03-01T05:01:14.921Z,98205.69
2018-03-01T05:03:43.317Z,98205.64
2018-03-01T05:06:10.894Z,98193.14
2018-03-01T05:08:38.428Z,98203.52
2018-03-01T05:11:05.972Z,98189.68
2018-03-01T05:13:33.536Z,98192.98
2018-03-01T05:16:01.059Z,98200.45
2018-03-01T05:18:28.636Z,98192.56
2018-03-01T05:20:56.167Z,98182.81
2018-03-01T05:23:23.744Z,98190.77
2018-03-01T05:25:51.278Z,98191.64
2018-03-01T05:28:18.854Z,98182.93
2018-03-01T05:30:46.394Z,98170.95
2018-03-01T05:33:13.947Z,98184.50
2018-03-01T05:35:41.523Z,98184.31
2018-03-01T05:38:09.052Z,98178.13
2018-03-01T05:40:36.608Z,98182.65
2018-03-01T05:43:04.138Z,98175.24
2018-03-01T05:45:31.710Z,98179.12
2018-03-01T05:47:59.241Z,98181.72
2018-03-01T05:50:26.817Z,98166.87
2018-03-01T05:52:54.346Z,98167.81
2018-03-01T05:55:21.910Z,98162.44
2018-03-01T05:57:49.434Z,98166.21
2018-03-01T06:00:17.022Z,98171.15
2018-03-01T06:02:44.595Z,98162.97
2018-03-01T06:05:12.144Z,98167.75
2018-03-01T06:07:39.729Z,98161.56
2018-03-01T06:10:07.383Z,98147.64
2018-03-01T06:12:34.956Z,98146.55
2018-03-01T06:15:02.633Z,98151.64
2018-03-01T06:17:30.236Z,98160.47
2018-03-01T06:20:00.660Z,98155.50
2018-03-01T06:22:31.182Z,98141.87
2018-03-01T06:24:59.012Z,98159.80
2018-03-01T06:27:26.548Z,98143.46
2018-03-01T06:29:54.099Z,98156.04
2018-03-01T06:32:21.663Z,98158.13
2018-03-01T06:34:49.262Z,98144.95
2018-03-01T06:37:16.791Z,98147.69
2018-03-01T06:39:44.349Z,98146.14
2018-03-01T06:42:11.911Z,98133.02
2018-03-01T06:44:39.514Z,98128.52
2018-03-01T06:47:07.083Z,98126.73
2018-03-01T06:49:34.650Z,98118.17
2018-03-01T06:52:02.204Z,98128.19
2018-03-01T06:54:29.753Z,98135.25
2018-03-01T06:56:57.366Z,98138.92
2018-03-01T06:59:24.904Z,98137.84
2018-03-01T07:01:52.482Z,98136.00
2018-03-01T07:04:20.028Z,98151.30
2018-03-01T07:06:47.608Z,98143.45
2018-03-01T07:09:15.135Z,98147.98
2018-03-01T07:11:42.697Z,98157.15
2018-03-01T07:14:10.252Z,98156.89
2018-03-01T07:16:37.792Z,98169.34
2018-03-01T07:19:05.347Z,98163.75
2018-03-01T07:21:32.895Z,98156.06
2018-03-01T07:24:00.464Z,98148.39
2018-03-01T07:26:28.746Z,98144.20
2018-03-01T07:28:56.308Z,98140.99
2018-03-01T07:31:23.837Z,98137.26
2018-03-01T07:33:51.358Z,98128.20
2018-03-01T07:36:18.903Z,98131.55
2018-03-01T07:38:47.463Z,98096.99
2018-03-01T07:41:15.028Z,98121.20
2018-03-01T07:43:42.591Z,98134.59
2018-03-01T07:46:10.172Z,98130.28
2018-03-01T07:48:37.716Z,98115.22
2018-03-01T07:51:05.344Z,98124.96
2018-03-01T07:53:32.875Z,98116.42
2018-03-01T07:56:00.448Z,98115.00
2018-03-01T07:58:27.983Z,98118.06
2018-03-01T08:00:55.504Z,98110.66
2018-03-01T08:03:23.102Z,98099.72
2018-03-01T08:05:50.614Z,98109.72
2018-03-01T08:08:18.191Z,98112.24
2018-03-01T08:10:45.712Z,98107.73
2018-03-01T08:13:15.838Z,98117.02
2018-03-01T08:15:43.550Z,98102.00
2018-03-01T08:18:11.123Z,98099.64
2018-03-01T08:20:38.648Z,98091.58
2018-03-01T08:23:06.179Z,98084.04
2018-03-01T08:25:33.727Z,98078.65
2018-03-01T08:28:01.244Z,98083.83
2018-03-01T08:30:28.791Z,98085.41
2018-03-01T08:32:56.337Z,98080.16
2018-03-01T08:35:23.907Z,98070.77
2018-03-01T08:37:51.435Z,98076.58
2018-03-01T08:40:18.994Z,98086.38
2018-03-01T08:42:47.516Z,98055.88
2018-03-01T08:45:15.047Z,98077.72
2018-03-01T08:47:42.596Z,98063.00
2018-03-01T08:50:10.128Z,98073.67
2018-03-01T08:52:37.698Z,98057.08
2018-03-01T08:55:05.263Z,98061.79
2018-03-01T08:57:32.851Z,98072.80
2018-03-01T09:00:00.385Z,98062.31
2018-03-01T09:02:27.917Z,98069.45
2018-03-01T09:04:55.669Z,98058.54
2018-03-01T09:07:23.196Z,98072.36
2018-03-01T09:09:50.746Z,98068.69
2018-03-01T09:12:18.268Z,98066.02
2018-03-01T09:14:45.820Z,98068.83
2018-03-01T09:17:13.352Z,98058.74
2018-03-01T09:19:40.915Z,98065.56
2018-03-01T09:22:08.468Z,98063.61
2018-03-01T09:24:36.054Z,98056.03
2018-03-01T09:27:03.610Z,98042.94
2018-03-01T09:29:31.140Z,98061.75
2018-03-01T09:31:58.695Z,98054.05
2018-03-01T09:34:26.223Z,98056.67
2018-03-01T09:36:55.938Z,98058.34
2018-03-01T09:39:23.492Z,98053.33
2018-03-01T09:41:51.025Z,98057.09
2018-03-01T09:44:18.591Z,98053.84
2018-03-01T09:46:46.136Z,98050.81
2018-03-01T09:49:13.780Z,98055.23
2018-03-01T09:51:41.305Z,98037.99
2018-03-01T09:54:08.884Z,98048.66
2018-03-01T09:56:36.455Z,98044.96
2018-03-01T09:59:03.979Z,98042.37
2018-03-01T10:01:31.681Z,98037.86
2018-03-01T10:03:59.216Z,98034.66
2018-03-01T10:06:27.414Z,98035.45
2018-03-01T10:08:54.973Z,98034.25
2018-03-01T10:11:22.580Z,98040.14
2018-03-01T10:13:50.116Z,98040.18
2018-03-01T10:16:17.900Z,98004.41
2018-03-01T10:18:45.488Z,98026.08
2018-03-01T10:21:13.022Z,98034.34
2018-03-01T10:23:40.632Z,98017.27
2018-03-01T10:26:08.154Z,98008.87
2018-03-01T10:28:38.668Z,98019.13
2018-03-01T10:31:06.196Z,98007.07
2018-03-01T10:33:39.332Z,97997.97
2018-03-01T10:36:06.877Z,97992.55
2018-03-01T10:38:34.420Z,97988.72
2018-03-01T10:41:02.027Z,97990.59
2018-03-01T10:43:29.560Z,97991.48
2018-03-01T10:45:57.125Z,97981.05
2018-03-01T10:48:24.659Z,97988.13
2018-03-01T10:50:52.241Z,97979.67
2018-03-01T10:53:19.785Z,97984.25
2018-03-01T10:55:47.348Z,97980.13
2018-03-01T10:58:14.924Z,97982.03
2018-03-01T11:00:44.197Z,97988.84
2018-03-01T11:03:11.756Z,97989.05
2018-03-01T11:05:39.298Z,97987.95
2018-03-01T11:08:06.900Z,97981.30
2018-03-01T11:10:34.510Z,97978.22
2018-03-01T11:13:02.065Z,97975.09
2018-03-01T11:15:29.635Z,97964.02
2018-03-01T11:17:57.163Z,97962.83
2018-03-01T11:20:24.731Z,97954.50
2018-03-01T11:22:52.259Z,97943.44
2018-03-01T11:25:20.057Z,97954.34
2018-03-01T11:27:47.726Z,97933.27
2018-03-01T11:30:15.347Z,97948.52
2018-03-01T11:32:42.896Z,97930.95
2018-03-01T11:35:10.449Z,97929.50
2018-03-01T11:37:38.016Z,97924.00
2018-03-01T11:40:05.531Z,97924.48
2018-03-01T11:42:33.108Z,97922.88
2018-03-01T11:45:00.830Z,97928.36
2018-03-01T11:47:28.391Z,97920.79
2018-03-01T11:49:55.912Z,97902.15
2018-03-01T11:52:23.495Z,97914.27
2018-03-01T11:54:51.031Z,97900.70
2018-03-01T11:57:23.504Z,97885.83
2018-03-01T11:59:51.015Z,97882.77
2018-03-01T12:02:19.551Z,97892.37
2018-03-01T12:04:47.105Z,97876.17
2018-03-01T12:07:14.661Z,97878.55
2018-03-01T12:09:42.215Z,97876.53
2018-03-01T12:12:09.764Z,97867.86
2018-03-01T12:14:37.432Z,97870.25
2018-03-01T12:17:05.052Z,97863.17
2018-03-01T12:19:32.614Z,97871.60
2018-03-01T12:22:00.182Z,97859.47
2018-03-01T12:24:27.727Z,97855.00
2018-03-01T12:26:55.268Z,97849.85
2018-03-01T12:29:22.812Z,97859.35
2018-03-01T12:31:50.482Z,97853.05
2018-03-01T12:34:17.999Z,97861.30
2018-03-01T12:36:47.021Z,97839.74
2018-03-01T12:39:14.619Z,97835.78
2018-03-01T12:41:42.187Z,97846.52
2018-03-01T12:44:09.713Z,97841.20
2018-03-01T12:46:37.297Z,97828.89
2018-03-01T12:49:04.834Z,97832.91
2018-03-01T12:51:32.369Z,97834.26
2018-03-01T12:53:59.942Z,97826.27
2018-03-01T12:56:27.488Z,97832.82
2018-03-01T12:58:55.057Z,97825.36
2018-03-01T13:01:22.601Z,97817.88
2018-03-01T13:03:50.169Z,97832.78
2018-03-01T13:06:18.917Z,97819.83
2018-03-01T13:08:46.490Z,97834.29
2018-03-01T13:11:14.019Z,97823.13
2018-03-01T13:13:41.533Z,97819.91
2018-03-01T13:16:09.092Z,97814.34
2018-03-01T13:18:36.680Z,97814.95
2018-03-01T13:21:07.808Z,97811.14
2018-03-01T13:23:35.498Z,97813.70
2018-03-01T13:26:03.057Z,97815.18
2018-03-01T13:28:31.928Z,97812.16
2018-03-01T13:31:10.317Z,97793.24
2018-03-01T13:36:25.336Z,97801.91
2018-03-01T13:38:59.940Z,97805.12
2018-03-01T13:41:35.625Z,97809.88
2018-03-01T13:44:09.176Z,97783.77
2018-03-01T13:46:42.527Z,97781.86
2018-03-01T13:49:14.877Z,97783.21
2018-03-01T13:51:53.133Z,97786.04
2018-03-01T13:54:27.849Z,97760.06
2018-03-01T13:56:59.554Z,97767.26
2018-03-01T13:59:32.211Z,97779.84
2018-03-01T14:02:06.902Z,97776.69
2018-03-01T14:04:42.188Z,97778.08
2018-03-01T14:10:20.668Z,97766.05
2018-03-01T14:12:57.181Z,97756.16
2018-03-01T14:15:29.661Z,97763.06
2018-03-01T14:18:08.111Z,97739.36
2018-03-01T14:20:46.993Z,97748.34
2018-03-01T14:26:41.329Z,97731.02
2018-03-01T14:29:17.277Z,97739.24
2018-03-01T14:31:52.391Z,97744.09
2018-03-01T14:34:26.543Z,97732.45
2018-03-01T14:36:59.741Z,97721.25
2018-03-01T14:39:33.834Z,97712.69
2018-03-01T14:42:07.654Z,97718.77
2018-03-01T14:44:42.721Z,97718.02
2018-03-01T14:47:15.278Z,97710.17
2018-03-01T14:49:47.754Z,97715.14
2018-03-01T14:52:19.674Z,97709.17
2018-03-01T14:54:47.430Z,97706.91
2018-03-01T14:57:15.831Z,97712.80
2018-03-01T14:59:43.693Z,97704.88
2018-03-01T15:02:11.519Z,97721.77
2018-03-01T15:04:39.112Z,97713.89
2018-03-01T15:07:06.879Z,97719.05
2018-03-01T15:09:34.448Z,97708.98
2018-03-01T15:12:01.976Z,97706.61
2018-03-01T15:14:29.495Z,97692.84
2018-03-01T15:16:57.064Z,97693.22
2018-03-01T15:19:24.595Z,97701.17
2018-03-01T15:21:52.743Z,97701.36
2018-03-01T15:24:20.263Z,97694.22
2018-03-01T15:26:47.849Z,97682.44
2018-03-01T15:29:15.373Z,97686.41
2018-03-01T15:31:42.945Z,97693.20
2018-03-01T15:34:10.474Z,97678.73
2018-03-01T15:36:38.054Z,97683.61
2018-03-01T15:39:05.573Z,97685.12
2018-03-01T15:41:33.107Z,97683.33
2018-03-01T15:44:00.675Z,97684.03
2018-03-01T15:46:28.210Z,97685.16
2018-03-01T15:48:55.764Z,97695.80
2018-03-01T15:51:23.378Z,97689.91
2018-03-01T15:53:50.936Z,97698.31
2018-03-01T15:56:18.548Z,97695.52
2018-03-01T15:58:47.361Z,97690.03
2018-03-01T16:01:15.415Z,97681.31
2018-03-01T16:03:43.024Z,97676.80
2018-03-01T16:06:10.577Z,97688.87
2018-03-01T16:08:38.149Z,97686.09
2018-03-01T16:11:05.687Z,97677.05
2018-03-01T16:13:33.316Z,97671.79
2018-03-01T16:16:00.836Z,97664.98
2018-03-01T16:18:28.390Z,97663.83
2018-03-01T16:20:55.915Z,97672.83
2018-03-01T16:23:23.486Z,97675.34
2018-03-01T16:25:51.352Z,97675.30
2018-03-01T16:28:20.489Z,97671.44
2018-03-01T16:30:49.251Z,97674.81
2018-03-01T16:33:16.898Z,97654.00
2018-03-01T16:35:44.427Z,97653.55
2018-03-01T16:38:11.989Z,97659.42
2018-03-01T16:40:39.510Z,97656.57
2018-03-01T16:43:08.726Z,97665.03
2018-03-01T16:45:38.418Z,97652.08
2018-03-01T16:48:05.942Z,97644.67
2018-03-01T16:50:33.497Z,97666.55
2018-03-01T16:53:01.024Z,97661.91
2018-03-01T16:55:28.591Z,97654.60
2018-03-01T16:57:56.109Z,97658.52
2018-03-01T17:00:23.680Z,97668.93
2018-03-01T17:02:51.197Z,97669.06
2018-03-01T17:05:18.888Z,97668.27
2018-03-01T17:07:46.404Z,97656.30
2018-03-01T17:10:13.923Z,97663.90
2018-03-01T17:12:41.484Z,97659.84
2018-03-01T17:15:09.008Z,97660.59
2018-03-01T17:17:36.586Z,97665.20
2018-03-01T17:20:04.142Z,97658.84
2018-03-01T17:22:31.705Z,97663.38
2018-03-01T17:24:59.296Z,97663.56
2018-03-01T17:27:26.852Z,97661.81
2018-03-01T17:29:54.396Z,97656.58
2018-03-01T17:32:21.932Z,97663.78
2018-03-01T17:34:49.483Z,97667.52
2018-03-01T17:37:17.008Z,97662.84
2018-03-01T17:39:44.556Z,97660.66
2018-03-01T17:42:12.086Z,97656.31
2018-03-01T17:44:39.637Z,97660.78
2018-03-01T17:47:07.162Z,97653.66
2018-03-01T17:49:34.722Z,97659.36
2018-03-01T17:52:02.252Z,97660.47
2018-03-01T17:54:29.824Z,97662.78
2018-03-01T17:56:57.368Z,97665.25
2018-03-01T17:59:24.933Z,97665.08
2018-03-01T18:01:52.484Z,97655.84
2018-03-01T18:04:20.050Z,97643.39
2018-03-01T18:06:48.326Z,97649.70
2018-03-01T18:09:15.881Z,97660.84
2018-03-01T18:11:43.400Z,97645.64
2018-03-01T18:14:10.945Z,97652.29
2018-03-01T18:16:38.467Z,97648.56
2018-03-01T18:19:06.449Z,97628.92
2018-03-01T18:21:34.206Z,97643.86
2018-03-01T18:24:01.773Z,97620.59
2018-03-01T18:26:29.330Z,97631.31
2018-03-01T18:28:56.888Z,97627.52
2018-03-01T18:31:24.400Z,97615.74
2018-03-01T18:33:52.720Z,97607.48
2018-03-01T18:36:20.596Z,97615.41
2018-03-01T18:38:48.152Z,97609.02
2018-03-01T18:41:15.685Z,97602.76
2018-03-01T18:43:43.439Z,97590.87
2018-03-01T18:46:11.273Z,97564.66
2018-03-01T18:48:38.927Z,97588.70
2018-03-01T18:51:06.485Z,97576.87
2018-03-01T18:53:34.025Z,97581.49
2018-03-01T18:56:01.954Z,97589.95
2018-03-01T18:58:29.486Z,97591.42
2018-03-01T19:00:57.275Z,97578.04
2018-03-01T19:03:24.813Z,97582.02
2018-03-01T19:05:52.388Z,97590.19
2018-03-01T19:08:19.977Z,97586.17
2018-03-01T19:10:47.548Z,97590.19
2018-03-01T19:13:15.121Z,97588.55
2018-03-01T19:15:42.684Z,97593.40
2018-03-01T19:18:10.315Z,97594.28
2018-03-01T19:20:37.862Z,97594.06
2018-03-01T19:23:05.536Z,97591.42
2018-03-01T19:25:33.097Z,97597.82
2018-03-01T19:28:00.631Z,97607.45
2018-03-01T19:30:28.189Z,97597.44
2018-03-01T19:32:56.167Z,97585.66
2018-03-01T19:35:23.820Z,97591.96
2018-03-01T19:37:51.344Z,97579.42
2018-03-01T19:40:21.025Z,97573.77
2018-03-01T19:42:48.672Z,97581.27
2018-03-01T19:45:16.886Z,97574.81
2018-03-01T19:47:44.475Z,97567.09
2018-03-01T19:50:12.160Z,97560.95
2018-03-01T19:52:39.914Z,97557.80
2018-03-01T19:55:07.920Z,97561.17
2018-03-01T19:57:35.436Z,97564.77
2018-03-01T20:00:02.988Z,97555.05
2018-03-01T20:02:30.511Z,97550.19
2018-03-01T20:04:58.068Z,97559.91
2018-03-01T20:07:28.964Z,97561.36
2018-03-01T20:09:56.523Z,97565.84
2018-03-01T20:12:24.057Z,97561.40
2018-03-01T20:14:51.628Z,97580.73
2018-03-01T20:17:19.142Z,97576.47
2018-03-01T20:19:46.703Z,97568.70
2018-03-01T20:22:14.261Z,97556.16
2018-03-01T20:24:41.886Z,97540.44
2018-03-01T20:27:09.446Z,97541.20
2018-03-01T20:29:37.469Z,97565.59
2018-03-01T20:32:06.732Z,97550.53
2018-03-01T20:34:34.249Z,97543.52
2018-03-01T20:37:01.807Z,97554.15
2018-03-01T20:39:29.493Z,97544.14
2018-03-01T20:41:57.261Z,97537.75
2018-03-01T20:44:24.933Z,97541.16
2018-03-01T20:46:52.487Z,97540.81
2018-03-01T20:49:20.020Z,97545.03
2018-03-01T20:51:47.694Z,97543.16
2018-03-01T20:54:15.211Z,97530.90
2018-03-01T20:56:42.813Z,97533.20
2018-03-01T20:59:10.346Z,97527.94
2018-03-01T21:01:37.907Z,97534.30
2018-03-01T21:04:05.466Z,97531.92
2018-03-01T21:06:33.152Z,97544.96
2018-03-01T21:09:00.729Z,97523.03
2018-03-01T21:11:28.260Z,97522.17
2018-03-01T21:13:55.913Z,97525.73
2018-03-01T21:16:24.400Z,97516.77
2018-03-01T21:18:51.984Z,97514.50
2018-03-01T21:21:19.525Z,97506.44
2018-03-01T21:23:47.109Z,97512.03
2018-03-01T21:26:14.739Z,97499.20
2018-03-01T21:28:42.298Z,97505.51
2018-03-01T21:31:09.868Z,97503.77
2018-03-01T21:33:37.427Z,97509.10
2018-03-01T21:36:04.991Z,97496.59
2018-03-01T21:38:32.528Z,97500.25
2018-03-01T21:41:00.124Z,97490.78
2018-03-01T21:43:27.654Z,97497.02
2018-03-01T21:45:55.244Z,97495.00
2018-03-01T21:48:22.759Z,97503.34
2018-03-01T21:50:50.292Z,97501.72
2018-03-01T21:53:17.852Z,97499.25
2018-03-01T21:55:45.366Z,97482.98
2018-03-01T21:58:12.969Z,97473.13
2018-03-01T22:00:40.491Z,97475.72
2018-03-01T22:03:08.129Z,97485.34
2018-03-01T22:05:35.658Z,97482.09
2018-03-01T22:08:03.214Z,97494.23
2018-03-01T22:10:30.736Z,97487.75
2018-03-01T22:12:58.315Z,97479.69
2018-03-01T22:15:25.835Z,97476.28
2018-03-01T22:17:53.376Z,97479.41
2018-03-01T22:20:20.920Z,97471.22
2018-03-01T22:22:48.439Z,97462.48
2018-03-01T22:25:15.986Z,97445.89
2018-03-01T22:27:43.519Z,97446.77
2018-03-01T22:30:11.072Z,97465.38
2018-03-01T22:32:38.587Z,97452.34
2018-03-01T22:35:06.154Z,97450.81
2018-03-01T22:37:33.684Z,97454.57
2018-03-01T22:40:02.420Z,97448.84
2018-03-01T22:42:30.064Z,97441.50
2018-03-01T22:44:57.592Z,97438.63
2018-03-01T22:47:25.215Z,97445.98
2018-03-01T22:49:52.736Z,97445.66
2018-03-01T22:52:21.303Z,97427.15
2018-03-01T22:54:48.833Z,97425.87
2018-03-01T22:57:18.365Z,97412.88
2018-03-01T22:59:45.874Z,97409.45
2018-03-01T23:02:13.450Z,97413.73
2018-03-01T23:04:40.967Z,97415.38
2018-03-01T23:07:08.492Z,97403.03
2018-03-01T23:09:36.037Z,97404.42
2018-03-01T23:12:04.705Z,97403.31
2018-03-01T23:14:32.351Z,97406.42
2018-03-01T23:16:59.891Z,97406.52
2018-03-01T23:19:27.441Z,97418.27
2018-03-01T23:21:55.004Z,97369.03
2018-03-01T23:24:22.605Z,97422.92
2018-03-01T23:26:50.131Z,97407.50
2018-03-01T23:29:17.706Z,97389.72
2018-03-01T23:31:45.239Z,97393.78
2018-03-01T23:34:12.775Z,97380.21
2018-03-01T23:36:40.350Z,97404.80
2018-03-01T23:39:07.923Z,97392.39
2018-03-01T23:41:35.475Z,97382.08
2018-03-01T23:44:03.016Z,97381.76
2018-03-01T23:46:30.572Z,97394.10
2018-03-01T23:48:58.103Z,97393.53
2018-03-01T23:51:25.704Z,97397.91
2018-03-01T23:53:53.253Z,97392.12
2018-03-01T23:56:20.831Z,97403.27
2018-03-01T23:58:48.359Z,97398.01
